Terminal Aerodrome Forecast
Issued by NWS Cleveland, OH

Home | Current Version | Previous Version | Graphics & Text | Print | Product List | Glossary Off
Versions: 1 2 3 4 5 6 7 8 9 10 11 12 13 14 15

000
FTUS41 KCLE 010217 AAA
TAFERI
TAF AMD
KERI 010217Z 0102/0124 23008KT P6SM SCT080
     FM011600 27012G20KT P6SM FEW050 SCT100
     FM012300 25008KT P6SM SCT100=

USA.gov is the U.S. government's official web portal to all federal, state and local government web resources and services.